Estación de C. Llollinco
Ultimos registro cada 15 minutos 63
| N° | Estación | Fecha / Hora | Temperatura | Humedad | Lluvia | Velocidad | Dirección | Radiación | Presion |
| 63 | C. Llollinco | 06-05-2026 15:30 | 11,7 | 79,8 | 0 | 4,8 | 231 | 120 | 0 |
| 62 | C. Llollinco | 06-05-2026 15:15 | 11,8 | 81,2 | 0 | 4,1 | 235 | 107 | 0 |
| 61 | C. Llollinco | 06-05-2026 15:00 | 11,7 | 79,4 | 0 | 4,3 | 230 | 93 | 0 |
| 60 | C. Llollinco | 06-05-2026 14:45 | 11,8 | 79,8 | 0 | 4,7 | 228 | 147 | 0 |
| 59 | C. Llollinco | 06-05-2026 14:30 | 11,6 | 80,1 | 0 | 4,7 | 231 | 182 | 0 |
| 58 | C. Llollinco | 06-05-2026 14:15 | 11,3 | 80,8 | 0 | 3,8 | 228 | 168 | 0 |
| 57 | C. Llollinco | 06-05-2026 14:00 | 11,2 | 80,6 | 0 | 4,6 | 230 | 123 | 0 |
| 56 | C. Llollinco | 06-05-2026 13:45 | 11,3 | 82,5 | 0 | 4,3 | 230 | 108 | 0 |
| 55 | C. Llollinco | 06-05-2026 13:30 | 11,7 | 82,9 | 0 | 4,8 | 223 | 125 | 0 |
| 54 | C. Llollinco | 06-05-2026 13:15 | 12 | 82,5 | 0 | 4,6 | 223 | 169 | 0 |
| 53 | C. Llollinco | 06-05-2026 13:00 | 12 | 84,7 | 0 | 4,1 | 226 | 168 | 0 |
| 52 | C. Llollinco | 06-05-2026 12:45 | 12,1 | 84,5 | 0 | 4 | 224 | 143 | 0 |
| 51 | C. Llollinco | 06-05-2026 12:30 | 12,2 | 87 | 0 | 4,2 | 229 | 150 | 0 |
| 50 | C. Llollinco | 06-05-2026 12:15 | 12,2 | 83,8 | 0 | 4,4 | 226 | 177 | 0 |
| 49 | C. Llollinco | 06-05-2026 12:00 | 12,2 | 85,3 | 0 | 3,7 | 228 | 159 | 0 |
| 48 | C. Llollinco | 06-05-2026 11:45 | 12,1 | 92,2 | 0 | 3 | 239 | 146 | 0 |
| 47 | C. Llollinco | 06-05-2026 11:30 | 12 | 92,4 | 0 | 3,2 | 240 | 162 | 0 |
| 46 | C. Llollinco | 06-05-2026 11:15 | 11,7 | 91,6 | 0,1 | 3,2 | 230 | 134 | 0 |
| 45 | C. Llollinco | 06-05-2026 11:00 | 11,6 | 91,9 | 0,1 | 3,6 | 227 | 78 | 0 |
| 44 | C. Llollinco | 06-05-2026 10:45 | 11,6 | 92,7 | 0,4 | 3,5 | 226 | 67 | 0 |
| 43 | C. Llollinco | 06-05-2026 10:30 | 11,5 | 94,1 | 0,4 | 3,4 | 235 | 48 | 0 |
| 42 | C. Llollinco | 06-05-2026 10:15 | 11,8 | 92,4 | 0,1 | 3,4 | 232 | 23 | 0 |
| 41 | C. Llollinco | 06-05-2026 10:00 | 12,3 | 92 | 0,1 | 2,9 | 210 | 26 | 0 |
| 40 | C. Llollinco | 06-05-2026 09:45 | 12,8 | 96,2 | 0,3 | 1,1 | 245 | 16 | 0 |
| 39 | C. Llollinco | 06-05-2026 09:30 | 12,9 | 96,6 | 0,1 | 0,5 | 295 | 31 | 0 |
| 38 | C. Llollinco | 06-05-2026 09:15 | 13 | 96,6 | 0 | 0,2 | 290 | 27 | 0 |
| 37 | C. Llollinco | 06-05-2026 09:00 | 13,2 | 96,7 | 0 | 0,5 | 274 | 23 | 0 |
| 36 | C. Llollinco | 06-05-2026 08:45 | 13,2 | 96,9 | 0,1 | 0,5 | 260 | 15 | 0 |
| 35 | C. Llollinco | 06-05-2026 08:30 | 13,3 | 96,8 | 0,1 | 0 | 0 | 13 | 0 |
| 34 | C. Llollinco | 06-05-2026 08:15 | 13,3 | 96,7 | 0,2 | 0 | 0 | 7 | 0 |
| 33 | C. Llollinco | 06-05-2026 08:00 | 13,3 | 96,6 | 0,1 | 0 | 0 | 3 | 0 |
| 32 | C. Llollinco | 06-05-2026 07:45 | 13,4 | 96,5 | 0,9 | 0,2 | 47 | 1 | 0 |
| 31 | C. Llollinco | 06-05-2026 07:30 | 13,4 | 96,3 | 1,4 | 1,2 | 33 | 0 | 0 |
| 30 | C. Llollinco | 06-05-2026 07:15 | 13,5 | 96,2 | 1,3 | 0,5 | 40 | 0 | 0 |
| 29 | C. Llollinco | 06-05-2026 07:00 | 13,5 | 95,6 | 2,1 | 0,7 | 17 | 0 | 0 |
| 28 | C. Llollinco | 06-05-2026 06:45 | 13,4 | 95,8 | 1,7 | 1,8 | 357 | 0 | 0 |
| 27 | C. Llollinco | 06-05-2026 06:30 | 13,5 | 95,3 | 2,9 | 1,6 | 50 | 0 | 0 |
| 26 | C. Llollinco | 06-05-2026 06:15 | 13,7 | 93,7 | 1,9 | 2 | 26 | 0 | 0 |
| 25 | C. Llollinco | 06-05-2026 06:00 | 13,8 | 92,4 | 0 | 2,4 | 27 | 0 | 0 |
| 24 | C. Llollinco | 06-05-2026 05:45 | 13,8 | 92,3 | 0 | 2,7 | 25 | 0 | 0 |
| 23 | C. Llollinco | 06-05-2026 05:30 | 13,9 | 91,6 | 0 | 3,6 | 19 | 0 | 0 |
| 22 | C. Llollinco | 06-05-2026 05:15 | 13,8 | 91,8 | 0 | 3,3 | 15 | 0 | 0 |
| 21 | C. Llollinco | 06-05-2026 05:00 | 13,8 | 92,4 | 0,2 | 3,6 | 16 | 0 | 0 |
| 20 | C. Llollinco | 06-05-2026 04:45 | 13,8 | 92 | 0,1 | 3,2 | 20 | 0 | 0 |
| 19 | C. Llollinco | 06-05-2026 04:30 | 13,8 | 91,8 | 0,1 | 2,4 | 22 | 0 | 0 |
| 18 | C. Llollinco | 06-05-2026 04:15 | 13,7 | 92,8 | 0,3 | 2,6 | 26 | 0 | 0 |
| 17 | C. Llollinco | 06-05-2026 04:00 | 13,6 | 92,9 | 0,1 | 3,5 | 24 | 0 | 0 |
| 16 | C. Llollinco | 06-05-2026 03:45 | 13,5 | 93,3 | 0,5 | 3,7 | 23 | 0 | 0 |
| 15 | C. Llollinco | 06-05-2026 03:30 | 13,3 | 95,1 | 0,4 | 2,9 | 34 | 0 | 0 |
| 14 | C. Llollinco | 06-05-2026 03:15 | 13,1 | 97,3 | 0,4 | 1,6 | 46 | 0 | 0 |
| 13 | C. Llollinco | 06-05-2026 03:00 | 13 | 97,9 | 0,5 | 1,1 | 51 | 0 | 0 |
| 12 | C. Llollinco | 06-05-2026 02:45 | 12,9 | 98,1 | 0,1 | 0,1 | 57 | 0 | 0 |
| 11 | C. Llollinco | 06-05-2026 02:30 | 13 | 98 | 0 | 0,2 | 30 | 0 | 0 |
| 10 | C. Llollinco | 06-05-2026 02:15 | 13 | 97,9 | 0 | 0,1 | 24 | 0 | 0 |
| 9 | C. Llollinco | 06-05-2026 02:00 | 13,1 | 97,9 | 0 | 0 | 29 | 0 | 0 |
| 8 | C. Llollinco | 06-05-2026 01:45 | 13,2 | 97,8 | 0,2 | 0 | 0 | 0 | 0 |
| 7 | C. Llollinco | 06-05-2026 01:30 | 13,3 | 97,8 | 0 | 0,1 | 38 | 0 | 0 |
| 6 | C. Llollinco | 06-05-2026 01:15 | 13,5 | 97,7 | 0,7 | 0 | 0 | 0 | 0 |
| 5 | C. Llollinco | 06-05-2026 01:00 | 13,5 | 97,6 | 0,9 | 0 | 0 | 0 | 0 |
| 4 | C. Llollinco | 06-05-2026 00:45 | 13,5 | 97,6 | 0,2 | 0 | 0 | 0 | 0 |
| 3 | C. Llollinco | 06-05-2026 00:30 | 13,5 | 97,5 | 0 | 0 | 0 | 0 | 0 |
| 2 | C. Llollinco | 06-05-2026 00:15 | 13,5 | 97,4 | 0 | 0 | 0 | 0 | 0 |
| 1 | C. Llollinco | 06-05-2026 00:00 | 13,6 | 97,1 | 0 | 0 | 0 | 0 | 0 |